Flight Track Log - Related Links

Times and Time Zones

All times are in EDT time to prevent confusion due to time zone crossing. See the EGF4393 flight status page for this flight to view local times or setup timezone preferences in your user account.

Time Position Orientation Groundspeed Altitude Reporting Facility
EDT Latitude Longitude Course Direction KTS MPH feet Rate Location/Type
Fri 05:22:42 PM 42.0186 -87.8942 346° North 169 194 2,000  Level Chicago Center
Fri 05:23:44 PM 42.0806 -87.8744 13° North 231 266 4,700 2,371 Climbing Chicago Center
Fri 05:24:00 PM 42.2795 -87.9990 350° North  Level FlightAware Approximate
Fri 05:24:46 PM 42.1519 -87.8339 23° Northeast 273 314 6,900  Level Chicago Center
Fri 05:25:00 PM 42.3838 -88.0335 340° North  Level FlightAware Approximate
Fri 05:25:48 PM 42.2231 -87.7931 23° Northeast 278 320 10,000  Level Chicago Center
Fri 05:26:00 PM 42.4885 -88.0644 352° North  Level FlightAware Approximate
Fri 05:26:50 PM 42.3119 -87.8039 355° North 315 362 12,500  Level Chicago Center
Fri 05:27:00 PM 42.5898 -88.1077 346° North  Level FlightAware Approximate
Fri 05:28:00 PM 42.6755 -88.1362 346° North  Level FlightAware Approximate
Fri 05:28:00 PM 42.4034 -87.8699 332° Northwest  Level Estimated
Fri 05:28:54 PM 42.5267 -87.8253 332° Northwest 365 420 16,100  Level Chicago Center
Fri 05:29:56 PM 42.6408 -87.8358 356° North 402 463 17,600 1,403 Climbing Chicago Center
Fri 05:30:58 PM 42.7561 -87.8478 356° North 413 475 19,000 1,839 Climbing Chicago Center
Fri 05:32:00 PM 42.8719 -87.8553 357° North 415 478 21,400 1,452 Climbing Chicago Center
Fri 05:33:02 PM 42.9800 -87.9072 341° North 432 497 22,000 290 Climbing Chicago Center
Fri 05:34:04 PM 43.0978 -88.0197 325° Northwest 444 511 22,000  Level Chicago Center
Fri 05:35:06 PM 43.2028 -88.1192 325° Northwest 455 524 22,000  Level Chicago Center
Fri 05:36:08 PM 43.3072 -88.2194 325° Northwest 458 527 22,000  Level Chicago Center
Fri 05:37:10 PM 43.4122 -88.3194 325° Northwest 462 532 22,000  Level Chicago Center
Fri 05:38:12 PM 43.5328 -88.4342 325° Northwest 465 535 22,000  Level Chicago Center
Fri 05:39:14 PM 43.6369 -88.5344 325° Northwest 464 534 22,000  Level Chicago Center
Fri 05:39:43 PM 43.6881 -88.5839 325° Northwest 461 531 22,000  Level Minneapolis Center
Fri 05:40:16 PM 43.7400 -88.6353 324° Northwest 459 528 22,000  Level Chicago Center
Fri 05:40:45 PM 43.7914 -88.6833 326° Northwest 455 524 22,000  Level Minneapolis Center
Fri 05:41:47 PM 43.8931 -88.7836 325° Northwest 452 520 22,000 -829 Level Minneapolis Center
Fri 05:42:48 PM 43.9936 -88.8825 325° Northwest 445 512 20,300 -2,049 Descending Minneapolis Center
Fri 05:43:50 PM 44.0894 -88.9769 325° Northwest 427 491 17,800 -2,068 Descending Minneapolis Center
Fri 05:45:16 PM 44.2136 -89.1019 324° Northwest 413 475 15,200 -1,541 Descending Minneapolis Center
Fri 05:46:18 PM 44.3111 -89.1981 325° Northwest 415 478 14,000 -1,324 Descending Minneapolis Center
Fri 05:47:32 PM 44.3956 -89.3308 312° West 377 434 12,200 -2,162 Descending Minneapolis Center
Fri 05:48:34 PM 44.4642 -89.4553 308° West 309 356 9,100 -2,710 Descending Minneapolis Center
Fri 05:49:36 PM 44.5150 -89.5492 307° West 293 337 6,600 -2,419 Descending Minneapolis Center

Login

Don't have an account? Register now (free) for customized features, flight alerts, and more!